createdAt,value
2023-03-10T00:00:45.465Z,9.84
2023-03-10T00:05:51.752Z,10.18
2023-03-10T00:10:57.785Z,9.09
2023-03-10T00:16:04.083Z,9.75
2023-03-10T00:21:10.137Z,9.17
2023-03-10T00:26:16.563Z,9.29
2023-03-10T00:31:22.660Z,17.12
2023-03-10T00:36:28.973Z,15.94
2023-03-10T00:41:35.084Z,17.01
2023-03-10T00:46:41.385Z,17.47
2023-03-10T00:51:47.344Z,17.96
2023-03-10T00:56:53.554Z,17.67
2023-03-10T01:01:59.846Z,18.55
2023-03-10T01:07:05.975Z,18.15
2023-03-10T01:12:12.483Z,18.12
2023-03-10T01:17:18.717Z,18.59
2023-03-10T01:22:24.851Z,19.14
2023-03-10T01:27:31.101Z,17.48
2023-03-10T01:32:37.214Z,17.32
2023-03-10T01:37:44.462Z,16.97
2023-03-10T01:42:49.087Z,16.08
2023-03-10T01:47:55.209Z,18.67
2023-03-10T01:53:01.309Z,18.16
2023-03-10T01:58:07.506Z,18.92
2023-03-10T02:03:13.829Z,18.22
2023-03-10T02:08:19.948Z,18.08
2023-03-10T02:13:26.074Z,18.30
2023-03-10T02:18:32.416Z,20.30
2023-03-10T02:23:41.107Z,18.56
2023-03-10T02:28:44.361Z,19.59
2023-03-10T02:33:50.516Z,20.10
2023-03-10T02:38:56.717Z,19.46
2023-03-10T02:44:02.800Z,19.04
2023-03-10T02:49:09.441Z,19.81
2023-03-10T02:54:15.582Z,19.03
2023-03-10T02:59:21.917Z,19.32
2023-03-10T03:04:27.988Z,20.09
2023-03-10T03:09:34.133Z,19.71
2023-03-10T03:14:40.212Z,20.35
2023-03-10T03:19:46.438Z,20.01
2023-03-10T03:24:52.438Z,19.64
2023-03-10T03:29:58.562Z,19.63
2023-03-10T03:35:04.625Z,17.05
2023-03-10T03:40:10.768Z,16.62
2023-03-10T03:45:16.821Z,19.96
2023-03-10T03:50:23.031Z,16.41
2023-03-10T03:55:29.094Z,18.46
2023-03-10T04:00:35.401Z,16.09
2023-03-10T04:05:41.565Z,16.65
2023-03-10T04:10:47.938Z,16.11
2023-03-10T04:15:54.033Z,16.94
2023-03-10T04:21:00.158Z,17.73
2023-03-10T04:26:06.225Z,18.23
2023-03-10T04:31:12.489Z,22.53
2023-03-10T04:36:18.618Z,23.12
2023-03-10T04:41:24.718Z,26.07
2023-03-10T04:46:30.797Z,26.58
2023-03-10T04:51:36.938Z,29.36
2023-03-10T04:56:43.115Z,31.71
2023-03-10T05:01:49.574Z,30.30
2023-03-10T05:06:55.528Z,32.60
2023-03-10T05:12:04.640Z,28.59
2023-03-10T05:17:10.727Z,28.32
2023-03-10T05:22:17.086Z,25.58
2023-03-10T05:27:23.296Z,25.49
2023-03-10T05:32:29.506Z,25.85
2023-03-10T05:37:35.509Z,26.37
2023-03-10T05:42:41.700Z,23.53
2023-03-10T05:47:47.900Z,24.29
2023-03-10T05:52:54.101Z,22.50
2023-03-10T05:58:00.177Z,23.77
2023-03-10T06:03:06.417Z,23.05
2023-03-10T06:08:12.469Z,22.99
2023-03-10T06:13:18.688Z,20.85
2023-03-10T06:18:24.742Z,23.61
2023-03-10T06:23:30.967Z,20.97
2023-03-10T06:28:37.072Z,22.46
2023-03-10T06:33:43.523Z,21.58
2023-03-10T06:38:49.611Z,22.44
2023-03-10T06:43:55.927Z,20.18
2023-03-10T06:49:01.985Z,21.70
2023-03-10T06:54:08.130Z,20.32
2023-03-10T06:59:14.192Z,21.44
2023-03-10T07:04:20.602Z,20.89
2023-03-10T07:09:26.668Z,20.32
2023-03-10T07:14:32.898Z,22.17
2023-03-10T07:19:38.962Z,22.39
2023-03-10T07:24:45.161Z,22.79
2023-03-10T07:29:51.244Z,22.12
2023-03-10T07:34:58.390Z,22.23
2023-03-10T07:40:04.517Z,23.85
2023-03-10T07:45:10.642Z,22.78
2023-03-10T07:50:16.976Z,24.00
2023-03-10T07:55:23.111Z,23.27
2023-03-10T08:00:29.215Z,24.02
2023-03-10T08:05:35.330Z,24.23
2023-03-10T08:10:41.430Z,21.92
2023-03-10T08:15:47.671Z,23.51
2023-03-10T08:20:53.839Z,24.14
2023-03-10T08:26:00.135Z,23.47
2023-03-10T08:31:06.262Z,24.55
2023-03-10T08:36:12.664Z,20.53
2023-03-10T08:41:18.832Z,22.86
2023-03-10T08:46:25.094Z,22.23
2023-03-10T08:51:31.194Z,20.70
2023-03-10T08:56:37.403Z,20.49
2023-03-10T09:01:43.642Z,18.85
2023-03-10T09:06:49.865Z,19.66
2023-03-10T09:11:55.997Z,21.86
2023-03-10T09:17:02.256Z,21.34
2023-03-10T09:22:08.169Z,20.61
2023-03-10T09:27:14.360Z,21.29
2023-03-10T09:32:20.535Z,22.19
2023-03-10T09:37:26.550Z,21.55
2023-03-10T09:42:37.763Z,22.39
2023-03-10T09:47:38.280Z,22.45
2023-03-10T09:52:44.353Z,21.50
2023-03-10T09:57:50.503Z,23.82
2023-03-10T10:02:56.685Z,23.48
2023-03-10T10:08:02.797Z,23.61
2023-03-10T10:13:08.862Z,22.10
2023-03-10T10:18:19.190Z,22.96
2023-03-10T10:23:20.858Z,24.29
2023-03-10T10:28:27.098Z,21.11
2023-03-10T10:33:33.169Z,24.72
2023-03-10T10:38:39.325Z,23.41
2023-03-10T10:43:45.463Z,22.69
2023-03-10T10:48:51.642Z,22.78
2023-03-10T10:53:57.748Z,22.58
2023-03-10T10:59:03.949Z,21.79
2023-03-10T11:04:10.049Z,22.61
2023-03-10T11:09:16.263Z,23.23
2023-03-10T11:14:22.360Z,21.04
2023-03-10T11:19:28.586Z,22.27
2023-03-10T11:24:34.668Z,23.14
2023-03-10T11:29:40.913Z,22.79
2023-03-10T11:34:46.991Z,23.13
2023-03-10T11:39:53.235Z,23.53
2023-03-10T11:44:59.518Z,22.67
2023-03-10T11:50:05.689Z,21.38
2023-03-10T11:55:11.842Z,23.69
2023-03-10T12:00:18.083Z,22.64
2023-03-10T12:05:24.244Z,22.24
2023-03-10T12:10:30.430Z,21.90
2023-03-10T12:16:36.031Z,24.05
2023-03-10T12:21:42.272Z,23.96
2023-03-10T12:26:48.365Z,20.61
2023-03-10T12:31:54.774Z,21.30
2023-03-10T12:37:00.746Z,21.10
2023-03-10T12:42:07.993Z,21.21
2023-03-10T12:47:14.199Z,20.78
2023-03-10T12:52:20.258Z,19.36
2023-03-10T12:57:28.217Z,21.04
2023-03-10T13:02:36.502Z,19.78
2023-03-10T13:07:42.565Z,19.10
2023-03-10T13:12:48.754Z,22.16
2023-03-10T13:17:54.909Z,20.49
2023-03-10T13:23:01.100Z,20.75
2023-03-10T13:28:07.278Z,19.66
2023-03-10T13:33:13.448Z,21.08
2023-03-10T13:38:19.750Z,19.80
2023-03-10T13:43:26.589Z,20.14
2023-03-10T13:48:32.766Z,20.00
2023-03-10T13:53:38.930Z,20.78
2023-03-10T13:58:45.053Z,21.25
2023-03-10T14:03:51.330Z,20.95
2023-03-10T14:08:57.497Z,21.43
2023-03-10T14:14:03.703Z,19.62
2023-03-10T14:19:09.840Z,25.39
2023-03-10T14:24:16.214Z,26.00
2023-03-10T14:29:22.269Z,23.44
2023-03-10T14:34:29.087Z,23.13
2023-03-10T14:39:36.958Z,24.23
2023-03-10T14:44:43.707Z,24.76
2023-03-10T14:49:51.963Z,22.35
2023-03-10T14:54:59.027Z,24.25
2023-03-10T15:00:05.691Z,23.98
2023-03-10T15:05:14.290Z,23.21
2023-03-10T15:10:20.930Z,20.92
2023-03-10T15:15:27.976Z,18.56
2023-03-10T15:20:34.741Z,17.73
2023-03-10T15:25:41.026Z,19.73
2023-03-10T15:30:47.860Z,20.19
2023-03-10T15:35:54.122Z,17.86
2023-03-10T15:41:00.214Z,18.30
2023-03-10T15:46:06.565Z,17.45
2023-03-10T15:51:12.618Z,17.44
2023-03-10T15:56:18.814Z,20.29
2023-03-10T16:01:24.914Z,20.02
2023-03-10T16:06:30.993Z,21.27
2023-03-10T16:11:37.339Z,21.38
2023-03-10T16:17:42.019Z,25.20
2023-03-10T16:22:48.102Z,24.78
2023-03-10T16:27:54.341Z,24.61
2023-03-10T16:33:01.950Z,23.26
2023-03-10T16:38:08.697Z,25.59
2023-03-10T16:43:15.330Z,27.80
2023-03-10T16:48:22.242Z,25.19
2023-03-10T16:53:31.446Z,22.43
2023-03-10T16:58:38.359Z,22.47
2023-03-10T17:03:45.137Z,18.88
2023-03-10T17:08:53.230Z,19.43
2023-03-10T17:14:00.595Z,18.68
2023-03-10T17:19:07.402Z,18.22
2023-03-10T17:24:13.998Z,17.42
2023-03-10T17:29:20.650Z,16.89
2023-03-10T17:34:27.291Z,17.15
2023-03-10T17:39:35.369Z,19.89
2023-03-10T17:44:40.405Z,18.76
2023-03-10T17:49:46.691Z,20.65
2023-03-10T17:54:52.783Z,21.33
2023-03-10T17:59:59.024Z,22.03
2023-03-10T18:05:05.775Z,21.94
2023-03-10T18:10:13.254Z,25.14
2023-03-10T18:15:19.387Z,23.53
2023-03-10T18:20:25.698Z,19.87
2023-03-10T18:25:31.839Z,20.29
2023-03-10T18:30:38.103Z,18.18
2023-03-10T18:35:44.305Z,13.88
2023-03-10T18:40:50.711Z,13.04
2023-03-10T18:45:57.020Z,10.52
2023-03-10T18:51:03.512Z,9.88
2023-03-10T18:56:09.891Z,12.37
2023-03-10T19:01:16.350Z,13.93
2023-03-10T19:06:22.517Z,14.69
2023-03-10T19:11:28.826Z,14.29
2023-03-10T19:16:35.099Z,16.28
2023-03-10T19:21:41.467Z,16.13
2023-03-10T19:26:47.604Z,16.08
2023-03-10T19:31:54.021Z,15.33
2023-03-10T19:37:00.354Z,15.74
2023-03-10T19:42:06.768Z,13.49
2023-03-10T19:47:12.972Z,14.02
2023-03-10T19:52:19.271Z,14.21
2023-03-10T19:57:25.529Z,11.91
2023-03-10T20:02:31.892Z,13.57
2023-03-10T20:07:38.120Z,10.36
2023-03-10T20:12:44.561Z,10.38
2023-03-10T20:17:50.789Z,11.54
2023-03-10T20:22:57.299Z,10.10
2023-03-10T20:28:03.708Z,9.34
2023-03-10T20:33:10.270Z,9.49
2023-03-10T20:38:16.664Z,9.84
2023-03-10T20:43:23.046Z,9.96
2023-03-10T20:48:29.295Z,9.37
2023-03-10T20:53:35.698Z,9.71
2023-03-10T20:58:42.844Z,9.90
2023-03-10T21:03:49.295Z,11.41
2023-03-10T21:08:55.511Z,9.05
2023-03-10T21:14:01.870Z,9.59
2023-03-10T21:19:08.115Z,8.61
2023-03-10T21:24:15.520Z,6.64
2023-03-10T21:29:21.821Z,5.84
2023-03-10T21:34:29.148Z,4.81
2023-03-10T21:39:35.393Z,4.10
2023-03-10T21:44:41.739Z,3.49
2023-03-10T21:49:48.027Z,3.22
2023-03-10T21:54:54.406Z,3.06
2023-03-10T22:00:00.628Z,3.12
2023-03-10T22:05:06.830Z,3.09
2023-03-10T22:10:13.030Z,3.69
2023-03-10T22:15:19.303Z,3.97
2023-03-10T22:20:25.367Z,3.17
2023-03-10T22:25:31.583Z,3.66
2023-03-10T22:30:37.676Z,3.56
2023-03-10T22:35:43.902Z,3.40
2023-03-10T22:40:50.019Z,4.20
2023-03-10T22:45:56.243Z,3.64
2023-03-10T22:51:02.292Z,3.99
2023-03-10T22:56:08.476Z,3.46
2023-03-10T23:01:14.655Z,5.78
2023-03-10T23:06:20.940Z,4.65
2023-03-10T23:11:27.080Z,4.63
2023-03-10T23:16:33.350Z,5.26
2023-03-10T23:21:39.439Z,5.39
2023-03-10T23:26:45.603Z,4.16
2023-03-10T23:31:51.717Z,5.32
2023-03-10T23:36:57.918Z,6.43
2023-03-10T23:42:04.072Z,3.37
2023-03-10T23:47:10.365Z,5.70
2023-03-10T23:52:16.422Z,4.58
2023-03-10T23:57:22.556Z,3.50
